Edison, Ohio
Current Conditions -  °F | °C
As of 5:53 AM on Wednesday 22 Oct 2014 (Local Time) from KMNN Reporting Station
Haze Haze  
Wind Chill: 36°   Ceiling: 400
Heat Index: 43°   Visibility: 3mi
Dew Point: 41°   Wind: 13mph
Humidity: 93%   Direction: 330°NNW
Pressure: 30.21"   Gusts: NA
Location:  40.56°N, 82.86°W
Report Text: KMNN 220953Z AUTO 33011KT 3SM BR OVC004 06/05 A3021 RMK AO2 SLP235 T00610050 TSNO
Loading
Personal Weather Stations






























Interactive Weather Map
Tropical Storm Tracking
New forecast layout! Learn more

10-Day Weather Forecast

Advertisements
Track Severe Weather on mobile